Time;durP1;ratioP1;P1;durP2;ratioP2;P2;SDS_P1;SDS_P2;PMS_P1;PMS_P2;Temp;Humidity;BMP_temperature;BMP_pressure;BME280_temperature;BME280_humidity;BME280_pressure;Samples;Min_cycle;Max_cycle;Signal;HPM_P1;HPM_P2
2023/01/31 00:01:28;;;;;;;28.58;3.97;;;3.90;99.90;;;;;;4813429;29;20550;-81
2023/01/31 00:03:59;;;;;;;27.90;4.40;;;3.80;99.90;;;;;;4808154;29;20523;-80
2023/01/31 00:06:49;;;;;;;24.05;3.90;;;3.90;99.90;;;;;;4808729;29;20058;-81
2023/01/31 00:09:16;;;;;;;24.90;4.18;;;3.90;99.90;;;;;;4797960;29;20051;-82
2023/01/31 00:11:42;;;;;;;30.92;3.65;;;4.80;99.90;;;;;;4809575;29;20051;-85
2023/01/31 00:14:09;;;;;;;26.17;4.35;;;5.60;99.90;;;;;;4821136;29;20119;-80
2023/01/31 00:16:35;;;;;;;18.60;2.92;;;5.30;99.90;;;;;;4814983;29;20064;-88
2023/01/31 00:19:02;;;;;;;22.15;3.22;;;5.30;99.90;;;;;;4808901;29;20126;-84
2023/01/31 00:21:30;;;;;;;20.75;3.42;;;3.70;99.90;;;;;;4794320;29;20062;-85
2023/01/31 00:23:57;;;;;;;33.15;3.30;;;5.00;99.90;;;;;;4810359;29;20057;-88
2023/01/31 00:26:30;;;;;;;23.25;3.58;;;3.30;99.90;;;;;;4796459;29;20560;-87
2023/01/31 00:28:58;;;;;;;24.13;3.55;;;3.70;99.90;;;;;;4809674;29;20062;-80
2023/01/31 00:31:25;;;;;;;31.92;4.05;;;3.60;99.90;;;;;;4792662;29;20428;-81
2023/01/31 00:33:52;;;;;;;27.52;4.38;;;3.50;99.90;;;;;;4794810;29;20872;-79
2023/01/31 00:36:21;;;;;;;24.20;3.75;;;3.60;99.90;;;;;;4796622;29;20119;-78
2023/01/31 00:38:51;;;;;;;28.77;4.30;;;3.30;99.90;;;;;;4809965;29;20054;-80
2023/01/31 00:41:19;;;;;;;24.83;4.30;;;5.00;99.90;;;;;;4808013;29;20504;-79
2023/01/31 00:43:44;;;;;;;30.33;4.43;;;3.40;99.90;;;;;;4788767;29;20397;-81
2023/01/31 00:46:10;;;;;;;34.70;4.18;;;3.40;99.90;;;;;;4806099;29;20081;-80
2023/01/31 00:48:36;;;;;;;21.15;3.88;;;3.50;99.90;;;;;;4807640;29;20050;-84
2023/01/31 00:51:02;;;;;;;21.35;3.35;;;3.40;99.90;;;;;;4803677;29;20054;-84
2023/01/31 00:53:28;;;;;;;19.00;2.90;;;4.30;99.90;;;;;;4809209;29;20595;-88
2023/01/31 00:56:00;;;;;;;30.92;3.90;;;3.10;99.90;;;;;;4806367;29;20050;-88
2023/01/31 00:58:25;;;;;;;27.17;3.10;;;3.30;99.90;;;;;;4806268;29;20523;-89
2023/01/31 01:00:51;;;;;;;17.30;3.03;;;3.30;99.90;;;;;;4791744;29;20054;-87
2023/01/31 01:03:17;;;;;;;18.95;3.30;;;3.60;99.90;;;;;;4809424;29;20046;-78
2023/01/31 01:05:43;;;;;;;28.02;3.92;;;4.90;99.90;;;;;;4805459;29;20467;-83
2023/01/31 01:08:09;;;;;;;24.45;2.63;;;3.20;99.90;;;;;;4787263;29;20066;-81
2023/01/31 01:10:35;;;;;;;21.27;2.65;;;3.10;99.90;;;;;;4799764;29;20092;-79
2023/01/31 01:13:01;;;;;;;23.13;2.83;;;5.00;99.90;;;;;;4785435;29;20054;-79
2023/01/31 01:15:27;;;;;;;19.15;2.85;;;3.00;99.90;;;;;;4788559;29;20051;-80
2023/01/31 01:17:54;;;;;;;19.02;2.42;;;3.10;99.90;;;;;;4799446;29;20621;-79
2023/01/31 01:20:19;;;;;;;21.15;2.85;;;3.10;99.90;;;;;;4785687;29;20047;-80
2023/01/31 01:22:45;;;;;;;18.38;3.10;;;4.00;99.90;;;;;;4802141;29;20132;-82
2023/01/31 01:25:11;;;;;;;25.17;3.28;;;4.80;99.90;;;;;;4804491;29;20082;-88
2023/01/31 01:27:36;;;;;;;16.73;2.75;;;3.00;99.90;;;;;;4805930;29;20533;-86
2023/01/31 01:30:03;;;;;;;18.88;3.15;;;3.50;99.90;;;;;;4797304;29;20066;-88
2023/01/31 01:32:29;;;;;;;21.52;3.75;;;3.10;99.90;;;;;;4804771;29;20531;-85
2023/01/31 01:34:55;;;;;;;16.15;3.03;;;3.10;99.90;;;;;;4801001;29;20065;-79
2023/01/31 01:37:20;;;;;;;19.42;2.40;;;4.70;99.90;;;;;;4799724;29;20054;-81
2023/01/31 01:39:53;;;;;;;26.52;3.20;;;3.10;99.90;;;;;;4800718;29;20058;-79
2023/01/31 01:42:22;;;;;;;15.77;2.15;;;3.10;99.90;;;;;;4800779;29;20061;-80
2023/01/31 01:44:49;;;;;;;25.90;2.70;;;3.10;99.90;;;;;;4805033;29;20050;-79
2023/01/31 01:47:38;;;;;;;21.27;2.55;;;3.40;99.90;;;;;;4801603;29;20058;-79
2023/01/31 01:50:09;;;;;;;27.50;4.35;;;3.20;99.90;;;;;;4807863;29;20039;-79
2023/01/31 01:52:49;;;;;;;21.52;3.10;;;3.20;99.90;;;;;;4806806;29;20068;-79
2023/01/31 01:55:31;;;;;;;9.88;2.55;;;3.20;99.90;;;;;;4816409;29;20051;-79
2023/01/31 01:58:20;;;;;;;21.95;2.78;;;3.20;99.90;;;;;;4818970;29;20208;-79
2023/01/31 02:00:48;;;;;;;19.35;2.60;;;3.20;99.90;;;;;;4804794;29;20070;-82
2023/01/31 02:03:14;;;;;;;18.73;2.15;;;3.80;99.90;;;;;;4807912;29;20080;-84
2023/01/31 02:05:51;;;;;;;14.75;2.92;;;3.30;99.90;;;;;;4809715;29;20058;-80
2023/01/31 02:08:20;;;;;;;18.52;2.75;;;3.30;99.90;;;;;;4807806;29;20120;-79
2023/01/31 02:10:48;;;;;;;24.58;3.67;;;3.30;99.90;;;;;;4811004;29;20108;-80
2023/01/31 02:13:15;;;;;;;16.77;2.85;;;3.30;99.90;;;;;;4807310;29;20062;-79
2023/01/31 02:15:41;;;;;;;23.88;3.88;;;3.40;99.90;;;;;;4807003;29;20578;-81
2023/01/31 02:18:07;;;;;;;19.80;3.42;;;4.80;99.90;;;;;;4808866;29;20058;-87
2023/01/31 02:20:42;;;;;;;19.90;2.50;;;3.40;99.90;;;;;;4794931;29;20393;-84
2023/01/31 02:23:07;;;;;;;;;;;3.40;99.90;;;;;;4797004;29;20065;-87
2023/01/31 02:25:55;;;;;;;13.55;2.42;;;3.30;99.90;;;;;;4813609;29;19925;-79
2023/01/31 02:28:33;;;;;;;20.77;2.22;;;3.40;99.90;;;;;;4811815;29;20733;-86
2023/01/31 02:31:36;;;;;;;18.40;2.92;;;3.40;99.90;;;;;;4796823;29;20603;-87
2023/01/31 02:34:29;;;;;;;23.60;2.45;;;3.50;99.90;;;;;;4796200;29;20133;-80
2023/01/31 02:37:31;;;;;;;15.68;2.17;;;3.50;99.90;;;;;;4809416;29;20066;-82
2023/01/31 02:40:18;;;;;;;14.32;2.08;;;3.50;99.90;;;;;;4811548;29;20492;-85
2023/01/31 02:42:49;;;;;;;19.23;1.88;;;3.50;99.90;;;;;;4797628;29;20062;-84
2023/01/31 02:45:23;;;;;;;14.10;1.73;;;3.50;99.90;;;;;;4810957;29;20539;-80
2023/01/31 02:48:01;;;;;;;22.20;3.28;;;3.40;99.90;;;;;;4810389;29;20062;-84
2023/01/31 02:50:33;;;;;;;23.48;3.63;;;3.50;99.90;;;;;;4814250;29;20393;-82
2023/01/31 02:53:06;;;;;;;15.05;2.40;;;3.70;99.90;;;;;;4811225;29;20129;-85
2023/01/31 02:56:13;;;;;;;26.67;3.05;;;3.50;99.90;;;;;;4810161;29;20055;-80
2023/01/31 02:58:42;;;;;;;24.95;3.00;;;3.30;99.90;;;;;;4810298;29;20105;-82
2023/01/31 03:01:12;;;;;;;19.88;3.55;;;4.00;99.90;;;;;;4814304;29;20066;-85
2023/01/31 03:03:38;;;;;;;15.13;2.67;;;3.70;99.90;;;;;;4812441;29;20055;-79
2023/01/31 03:06:21;;;;;;;22.02;3.03;;;3.40;99.90;;;;;;4810237;29;20070;-82
2023/01/31 03:08:52;;;;;;;22.77;3.22;;;3.40;99.90;;;;;;4793674;29;20068;-82
2023/01/31 03:11:21;;;;;;;27.67;3.33;;;3.80;99.90;;;;;;4811504;29;20058;-80
2023/01/31 03:13:53;;;;;;;16.73;2.03;;;3.50;99.90;;;;;;4808623;29;20495;-80
2023/01/31 03:19:27;;;;;;;17.85;3.65;;;3.60;99.90;;;;;;4810547;29;20060;-86
2023/01/31 03:22:02;;;;;;;16.20;2.90;;;3.60;99.90;;;;;;4808216;29;20058;-84
2023/01/31 03:24:29;;;;;;;23.58;3.13;;;3.60;99.90;;;;;;4812675;29;20419;-84
2023/01/31 03:26:57;;;;;;;14.02;2.20;;;4.50;99.90;;;;;;4806126;29;20046;-89
2023/01/31 03:29:27;;;;;;;21.17;2.88;;;3.70;99.90;;;;;;4812652;29;20149;-84
2023/01/31 03:31:57;;;;;;;17.20;1.92;;;4.30;99.90;;;;;;4805566;29;20145;-87
2023/01/31 03:34:24;;;;;;;15.63;2.53;;;5.50;99.90;;;;;;4828380;29;20088;-80
2023/01/31 03:37:17;;;;;;;14.40;2.15;;;3.80;99.90;;;;;;4817642;29;20067;-80
2023/01/31 03:39:51;;;;;;;18.60;2.55;;;3.80;99.90;;;;;;4816435;29;20083;-87
2023/01/31 03:42:43;;;;;;;20.90;3.00;;;3.80;99.90;;;;;;4811575;29;20066;-80
2023/01/31 03:45:31;;;;;;;17.27;2.42;;;3.80;99.90;;;;;;4810454;29;20523;-87
2023/01/31 03:47:59;;;;;;;21.60;2.95;;;3.80;99.90;;;;;;4810917;29;20505;-84
2023/01/31 03:50:34;;;;;;;16.77;2.38;;;3.60;99.90;;;;;;4811958;29;20107;-86
2023/01/31 03:53:08;;;;;;;18.42;2.17;;;3.80;99.90;;;;;;4795243;29;20062;-90
2023/01/31 03:55:41;;;;;;;21.58;2.65;;;3.80;99.90;;;;;;4809567;29;20094;-82
2023/01/31 03:58:09;;;;;;;21.00;3.17;;;3.80;99.90;;;;;;4798052;29;20437;-81
2023/01/31 04:00:37;;;;;;;16.15;2.70;;;4.40;99.90;;;;;;4820392;29;20062;-80
2023/01/31 04:03:13;;;;;;;20.73;3.05;;;3.90;99.90;;;;;;4815010;29;20055;-79
2023/01/31 04:05:39;;;;;;;22.90;2.60;;;3.80;99.90;;;;;;4816130;29;20104;-80
2023/01/31 04:08:05;;;;;;;19.45;3.10;;;3.90;99.90;;;;;;4815595;29;20067;-80
2023/01/31 04:10:31;;;;;;;17.92;3.45;;;3.90;99.90;;;;;;4815156;29;20115;-79
2023/01/31 04:12:56;;;;;;;19.77;2.90;;;3.90;99.90;;;;;;4816770;29;20101;-79
2023/01/31 04:15:22;;;;;;;15.02;2.47;;;3.90;99.90;;;;;;4818560;29;20578;-80
2023/01/31 04:17:48;;;;;;;23.85;3.13;;;3.90;99.90;;;;;;4812943;29;20165;-81
2023/01/31 04:20:14;;;;;;;18.60;2.65;;;4.00;99.90;;;;;;4809299;29;20054;-80
2023/01/31 04:22:39;;;;;;;24.55;3.65;;;4.00;99.90;;;;;;4799159;29;20176;-79
2023/01/31 04:25:06;;;;;;;30.30;3.33;;;4.00;99.90;;;;;;4812865;29;20066;-82
2023/01/31 04:27:32;;;;;;;20.83;2.72;;;4.00;99.90;;;;;;4809378;29;20066;-84
2023/01/31 04:29:57;;;;;;;31.45;4.30;;;5.80;99.90;;;;;;4813871;29;20042;-80
2023/01/31 04:32:23;;;;;;;20.88;2.92;;;5.70;99.90;;;;;;4803405;29;20542;-80
2023/01/31 04:34:49;;;;;;;25.67;2.92;;;4.10;99.90;;;;;;4793356;29;20053;-80
2023/01/31 04:37:15;;;;;;;20.85;3.70;;;4.10;99.90;;;;;;4810691;29;20105;-82
2023/01/31 04:39:41;;;;;;;18.63;2.90;;;4.00;99.90;;;;;;4822472;29;20111;-84
2023/01/31 04:42:06;;;;;;;25.77;4.20;;;4.20;99.90;;;;;;4813776;29;20058;-84
2023/01/31 04:44:32;;;;;;;21.90;3.20;;;4.20;99.90;;;;;;4820778;29;20114;-79
2023/01/31 04:46:58;;;;;;;21.63;3.55;;;4.10;99.90;;;;;;4818254;29;20051;-79
2023/01/31 04:49:23;;;;;;;22.67;3.53;;;5.80;99.90;;;;;;4809971;29;20077;-88
2023/01/31 04:51:49;;;;;;;21.17;4.50;;;4.40;99.90;;;;;;4808034;29;20059;-89
2023/01/31 04:54:15;;;;;;;15.75;3.60;;;5.50;99.90;;;;;;4814255;29;20059;-88
2023/01/31 04:56:40;;;;;;;27.58;4.65;;;5.60;99.90;;;;;;4793032;29;20127;-87
2023/01/31 04:59:08;;;;;;;24.90;4.45;;;4.70;99.90;;;;;;4810057;29;20077;-82
2023/01/31 05:01:34;;;;;;;31.10;4.47;;;5.50;99.90;;;;;;4811325;29;20056;-81
2023/01/31 05:04:00;;;;;;;27.08;4.53;;;4.90;99.90;;;;;;4809475;29;20054;-83
2023/01/31 05:06:25;;;;;;;19.13;4.35;;;4.90;99.90;;;;;;4808539;29;20407;-80
2023/01/31 05:08:54;;;;;;;27.58;4.05;;;5.10;99.90;;;;;;4808982;29;20065;-80
2023/01/31 05:11:20;;;;;;;24.75;3.35;;;5.10;99.90;;;;;;4811479;29;20073;-80
2023/01/31 05:13:46;;;;;;;18.75;4.28;;;5.10;99.90;;;;;;4818313;29;20064;-79
2023/01/31 05:16:13;;;;;;;21.90;4.00;;;6.80;99.90;;;;;;4807339;29;20076;-82
2023/01/31 05:18:39;;;;;;;34.05;4.60;;;5.10;99.90;;;;;;4796163;29;20093;-87
2023/01/31 05:21:06;;;;;;;26.92;4.18;;;5.30;99.90;;;;;;4810638;29;20054;-83
2023/01/31 05:23:33;;;;;;;26.92;4.88;;;5.30;99.90;;;;;;4811407;29;20095;-89
2023/01/31 05:25:59;;;;;;;30.05;4.22;;;5.20;99.90;;;;;;4810295;29;20062;-89
2023/01/31 05:28:25;;;;;;;23.70;4.20;;;7.20;99.90;;;;;;4809014;29;20419;-90
2023/01/31 05:30:51;;;;;;;34.75;6.07;;;5.30;99.90;;;;;;4807436;29;20054;-80
2023/01/31 05:33:19;;;;;;;26.48;4.90;;;6.70;99.90;;;;;;4794613;29;20138;-80
2023/01/31 05:35:46;;;;;;;26.77;3.97;;;6.80;99.90;;;;;;4815854;29;20054;-83
2023/01/31 05:38:11;;;;;;;29.38;3.88;;;7.00;99.90;;;;;;4809135;29;20124;-80
2023/01/31 05:40:37;;;;;;;25.00;4.72;;;5.40;99.90;;;;;;4793561;29;20499;-83
2023/01/31 05:43:03;;;;;;;21.50;2.85;;;5.30;99.90;;;;;;4808872;29;20054;-80
2023/01/31 05:45:30;;;;;;;29.98;4.63;;;5.40;99.90;;;;;;4805759;29;20051;-79
2023/01/31 05:47:56;;;;;;;35.28;4.82;;;5.40;99.90;;;;;;4812092;29;20162;-81
2023/01/31 05:50:22;;;;;;;18.23;3.70;;;5.40;99.90;;;;;;4812144;29;20050;-82
2023/01/31 05:52:53;;;;;;;22.67;3.70;;;5.30;99.90;;;;;;4812108;29;20089;-79
2023/01/31 05:55:19;;;;;;;30.92;4.70;;;5.40;99.90;;;;;;4810646;29;20043;-87
2023/01/31 05:57:45;;;;;;;30.23;3.97;;;5.30;99.90;;;;;;4811646;29;20108;-87
2023/01/31 06:00:13;;;;;;;26.02;3.67;;;5.40;99.90;;;;;;4813354;29;20511;-87
2023/01/31 06:02:39;;;;;;;25.40;4.45;;;5.50;99.90;;;;;;4811805;29;20123;-80
2023/01/31 06:05:05;;;;;;;24.27;5.22;;;6.70;99.90;;;;;;4814122;29;20059;-83
2023/01/31 06:07:30;;;;;;;27.27;6.13;;;5.50;99.90;;;;;;4814432;29;20069;-79
2023/01/31 06:09:56;;;;;;;27.33;4.78;;;5.40;99.90;;;;;;4812866;29;20053;-83
2023/01/31 06:12:22;;;;;;;32.85;5.70;;;5.40;99.90;;;;;;4793463;29;20056;-80
2023/01/31 06:14:48;;;;;;;23.40;4.82;;;5.40;99.90;;;;;;4813153;29;20073;-80
2023/01/31 06:17:13;;;;;;;24.15;4.43;;;5.40;99.90;;;;;;4812276;29;20058;-82
2023/01/31 06:19:39;;;;;;;28.42;5.13;;;5.40;99.90;;;;;;4813616;29;20122;-80
2023/01/31 06:22:05;;;;;;;27.58;5.35;;;5.50;99.90;;;;;;4812535;29;20054;-80
2023/01/31 06:24:30;;;;;;;26.42;3.60;;;5.40;99.90;;;;;;4810557;29;20496;-79
2023/01/31 06:26:56;;;;;;;32.17;4.82;;;5.40;99.90;;;;;;4811738;29;20094;-82
2023/01/31 06:29:22;;;;;;;27.05;4.45;;;5.50;99.90;;;;;;4797981;29;20133;-81
2023/01/31 06:31:47;;;;;;;32.78;5.40;;;5.10;99.90;;;;;;4790864;29;20059;-79
2023/01/31 06:34:13;;;;;;;24.35;4.88;;;5.40;99.90;;;;;;4813123;29;20395;-81
2023/01/31 06:36:39;;;;;;;29.15;4.95;;;5.30;99.90;;;;;;4812477;29;20118;-81
2023/01/31 06:39:04;;;;;;;28.45;4.25;;;5.50;99.90;;;;;;4798122;29;20456;-79
2023/01/31 06:41:30;;;;;;;22.90;4.35;;;4.80;99.90;;;;;;4798205;29;20050;-82
2023/01/31 06:43:56;;;;;;;16.27;3.00;;;5.50;99.90;;;;;;4812403;29;20054;-81
2023/01/31 06:46:22;;;;;;;34.67;9.95;;;6.30;99.90;;;;;;4810390;29;20066;-79
2023/01/31 06:48:47;;;;;;;33.28;6.53;;;5.40;99.90;;;;;;4794368;29;20054;-80
2023/01/31 06:51:14;;;;;;;17.58;3.83;;;5.90;99.90;;;;;;4812138;29;20053;-80
2023/01/31 06:53:40;;;;;;;22.65;3.67;;;5.50;99.90;;;;;;4814873;29;20069;-81
2023/01/31 06:56:06;;;;;;;25.55;4.50;;;5.50;99.90;;;;;;4811355;29;20039;-82
2023/01/31 06:58:33;;;;;;;32.38;4.22;;;5.50;99.90;;;;;;4817220;29;20393;-88
2023/01/31 07:01:10;;;;;;;21.70;4.40;;;5.40;99.90;;;;;;4810700;29;20115;-80
2023/01/31 07:03:37;;;;;;;22.02;4.15;;;7.00;99.90;;;;;;4813975;29;20047;-79
2023/01/31 07:06:03;;;;;;;32.65;3.67;;;6.00;99.90;;;;;;4811927;29;20078;-80
2023/01/31 07:08:30;;;;;;;23.73;4.40;;;5.40;99.90;;;;;;4808031;29;20059;-80
2023/01/31 07:10:56;;;;;;;19.08;4.15;;;7.00;99.90;;;;;;4794257;29;20120;-80
2023/01/31 07:13:22;;;;;;;26.35;3.85;;;6.80;99.90;;;;;;4812624;29;20058;-84
2023/01/31 07:15:48;;;;;;;20.98;3.65;;;7.20;99.90;;;;;;4813298;29;20597;-80
2023/01/31 07:18:14;;;;;;;24.48;4.47;;;5.30;99.90;;;;;;4142878;29;10000626;-80
2023/01/31 07:20:41;;;;;;;19.30;2.83;;;7.20;99.90;;;;;;4804599;29;20051;-81
2023/01/31 07:23:07;;;;;;;25.90;4.43;;;5.60;99.90;;;;;;4809809;29;20062;-91
2023/01/31 07:25:34;;;;;;;21.02;3.13;;;5.60;99.90;;;;;;4806751;29;20051;-89
2023/01/31 07:28:00;;;;;;;24.13;3.50;;;7.00;99.90;;;;;;4803236;29;20112;-86
2023/01/31 07:30:27;;;;;;;29.10;3.75;;;5.50;99.90;;;;;;4804033;29;20047;-92
2023/01/31 07:32:52;;;;;;;25.13;3.80;;;7.00;99.90;;;;;;4788754;29;20081;-87
2023/01/31 07:35:19;;;;;;;25.95;4.30;;;7.20;99.90;;;;;;4808688;29;20050;-79
2023/01/31 07:37:44;;;;;;;13.05;2.72;;;5.60;99.90;;;;;;4806657;29;20393;-80
2023/01/31 07:40:12;;;;;;;17.48;3.00;;;7.10;99.90;;;;;;4805298;29;20050;-81
2023/01/31 07:42:38;;;;;;;22.00;4.28;;;5.60;99.90;;;;;;4806783;29;20051;-79
2023/01/31 07:45:04;;;;;;;25.45;3.15;;;5.60;99.90;;;;;;4821547;29;20092;-79
2023/01/31 07:47:30;;;;;;;19.90;3.03;;;5.60;99.90;;;;;;4812358;29;20150;-80
2023/01/31 07:49:56;;;;;;;19.40;2.97;;;5.50;99.90;;;;;;4805605;29;20141;-79
2023/01/31 07:52:22;;;;;;;20.45;2.88;;;5.50;99.90;;;;;;4813354;29;20050;-88
2023/01/31 07:54:47;;;;;;;21.92;3.85;;;7.20;99.90;;;;;;4803936;29;20088;-82
2023/01/31 07:57:16;;;;;;;12.32;2.17;;;6.10;99.90;;;;;;4812173;29;20120;-84
2023/01/31 07:59:43;;;;;;;18.00;3.00;;;7.00;99.90;;;;;;4804978;29;20114;-86
2023/01/31 08:04:56;;;;;;;15.82;2.35;;;5.70;99.90;;;;;;4809022;29;20047;-81
2023/01/31 08:07:22;;;;;;;19.80;2.63;;;5.90;99.90;;;;;;4805060;29;20568;-85
2023/01/31 08:09:49;;;;;;;14.65;3.08;;;5.80;99.90;;;;;;4808162;29;20411;-81
2023/01/31 08:12:15;;;;;;;19.08;2.28;;;5.80;99.90;;;;;;4810508;29;20062;-83
2023/01/31 08:14:41;;;;;;;12.60;2.50;;;7.40;99.90;;;;;;4792756;29;20065;-82
2023/01/31 08:17:07;;;;;;;14.02;1.95;;;6.70;99.90;;;;;;4809981;29;20054;-80
2023/01/31 08:19:33;;;;;;;13.73;1.63;;;7.90;99.90;;;;;;4807978;29;20066;-82
2023/01/31 08:22:00;;;;;;;13.20;2.85;;;5.80;99.90;;;;;;4801730;29;20054;-81
2023/01/31 08:24:27;;;;;;;26.08;2.55;;;5.90;99.90;;;;;;4810825;29;20492;-82
2023/01/31 08:26:52;;;;;;;17.48;2.30;;;6.50;99.90;;;;;;4785106;29;20103;-82
2023/01/31 08:29:18;;;;;;;21.58;2.72;;;5.90;99.90;;;;;;4809481;29;20070;-81
2023/01/31 08:31:44;;;;;;;18.90;3.50;;;5.90;99.90;;;;;;4808062;29;20049;-81
2023/01/31 08:34:10;;;;;;;15.30;2.53;;;6.90;99.90;;;;;;4810079;29;20106;-85
2023/01/31 08:36:36;;;;;;;14.70;2.45;;;6.00;99.90;;;;;;4810635;29;20066;-80
2023/01/31 08:39:02;;;;;;;24.67;3.50;;;7.30;99.90;;;;;;4818037;29;20046;-88
2023/01/31 08:41:29;;;;;;;17.38;3.38;;;5.90;99.90;;;;;;4809721;29;20243;-80
2023/01/31 08:43:56;;;;;;;22.23;4.10;;;6.00;99.90;;;;;;4808679;29;20054;-81
2023/01/31 08:46:24;;;;;;;24.20;4.40;;;6.00;99.90;;;;;;4811596;29;20503;-81
2023/01/31 08:48:50;;;;;;;22.95;3.17;;;6.00;99.90;;;;;;4811105;29;20051;-81
2023/01/31 08:51:16;;;;;;;19.55;3.70;;;5.90;99.90;;;;;;4810382;29;20047;-79
2023/01/31 08:53:43;;;;;;;13.57;2.25;;;5.90;99.90;;;;;;4812336;29;20402;-81
2023/01/31 08:56:10;;;;;;;22.67;3.88;;;6.10;99.90;;;;;;4794717;29;20058;-82
2023/01/31 08:58:37;;;;;;;16.17;2.70;;;6.70;99.90;;;;;;4792093;29;20055;-82
2023/01/31 09:01:08;;;;;;;16.77;2.95;;;7.10;99.90;;;;;;4810395;29;20057;-80
2023/01/31 09:03:33;;;;;;;23.08;3.60;;;7.30;99.90;;;;;;4810249;29;20287;-79
2023/01/31 09:06:00;;;;;;;15.77;2.45;;;6.00;99.90;;;;;;4811746;29;20258;-80
2023/01/31 09:08:26;;;;;;;23.77;3.53;;;6.00;99.90;;;;;;4808591;29;20137;-79
2023/01/31 09:10:54;;;;;;;22.85;3.72;;;6.00;99.90;;;;;;4806682;29;20058;-83
2023/01/31 09:13:20;;;;;;;18.67;3.05;;;6.90;99.90;;;;;;4796474;29;20081;-80
2023/01/31 09:15:45;;;;;;;15.38;3.17;;;7.80;99.90;;;;;;4795088;29;20063;-82
2023/01/31 09:18:11;;;;;;;13.63;2.30;;;6.10;99.90;;;;;;4808443;29;20065;-79
2023/01/31 09:20:37;;;;;;;14.65;2.45;;;6.10;99.90;;;;;;4808176;29;20050;-81
2023/01/31 09:23:03;;;;;;;14.88;3.20;;;7.90;99.90;;;;;;4810232;29;20059;-80
2023/01/31 09:25:28;;;;;;;27.42;4.20;;;6.20;99.90;;;;;;4810708;29;20057;-79
2023/01/31 09:27:54;;;;;;;17.08;3.13;;;6.20;99.90;;;;;;4810544;29;20584;-80
2023/01/31 09:30:20;;;;;;;21.23;3.20;;;7.70;99.90;;;;;;4810866;29;20784;-81
2023/01/31 09:32:46;;;;;;;19.13;3.33;;;6.30;99.90;;;;;;4809863;29;20066;-82
2023/01/31 09:35:12;;;;;;;26.40;3.85;;;6.30;99.90;;;;;;4808901;29;20046;-82
2023/01/31 09:37:38;;;;;;;25.98;3.20;;;6.30;99.90;;;;;;4807555;29;20059;-80
2023/01/31 09:40:05;;;;;;;22.27;3.08;;;6.30;99.90;;;;;;4809172;29;20510;-90
2023/01/31 09:42:42;;;;;;;21.88;3.67;;;6.30;99.90;;;;;;4811952;29;20093;-82
2023/01/31 09:45:25;;;;;;;14.68;2.63;;;6.40;99.90;;;;;;4810622;29;20066;-80
2023/01/31 09:47:55;;;;;;;21.05;3.88;;;6.90;99.90;;;;;;4808238;29;20389;-88
2023/01/31 09:50:28;;;;;;;20.08;2.80;;;6.40;99.90;;;;;;4812110;29;20055;-82
2023/01/31 09:52:54;;;;;;;20.02;2.35;;;6.50;99.90;;;;;;4810057;29;20046;-82
2023/01/31 09:55:46;;;;;;;18.65;2.90;;;7.10;99.90;;;;;;4792799;29;20713;-82
2023/01/31 09:58:45;;;;;;;17.55;4.53;;;6.50;99.90;;;;;;4793763;29;20067;-80
2023/01/31 10:01:23;;;;;;;20.23;2.63;;;6.60;99.90;;;;;;4794870;29;20145;-80
2023/01/31 10:04:08;;;;;;;16.23;3.15;;;6.60;99.90;;;;;;4795452;29;20204;-80
2023/01/31 10:06:48;;;;;;;20.25;3.40;;;6.50;99.90;;;;;;4795836;29;20039;-81
2023/01/31 10:09:31;;;;;;;15.10;3.33;;;6.50;99.90;;;;;;4808727;29;20423;-81
2023/01/31 10:12:05;;;;;;;22.30;3.42;;;6.50;99.90;;;;;;4807068;29;20070;-83
2023/01/31 10:14:53;;;;;;;16.50;2.53;;;6.50;99.90;;;;;;4816508;29;20135;-80
2023/01/31 10:17:24;;;;;;;15.07;2.72;;;6.50;99.90;;;;;;4810028;29;20093;-84
2023/01/31 10:20:01;;;;;;;20.27;3.05;;;7.70;99.90;;;;;;4809468;29;20059;-80
2023/01/31 10:22:38;;;;;;;19.00;3.35;;;7.70;99.90;;;;;;4810164;29;20047;-80
2023/01/31 10:25:25;;;;;;;21.40;3.80;;;6.40;99.90;;;;;;4811415;29;20056;-80
2023/01/31 10:27:57;;;;;;;19.90;3.72;;;6.40;99.90;;;;;;4813462;29;20064;-82
2023/01/31 10:30:30;;;;;;;19.50;3.45;;;6.40;99.90;;;;;;4813752;29;20126;-80
2023/01/31 10:33:18;;;;;;;25.58;4.18;;;6.30;99.90;;;;;;4813266;29;20447;-82
2023/01/31 10:35:46;;;;;;;22.65;3.70;;;6.40;99.90;;;;;;4794085;29;20492;-78
2023/01/31 10:38:31;;;;;;;13.90;2.10;;;6.50;99.90;;;;;;4813162;29;20059;-77
2023/01/31 10:41:13;;;;;;;19.13;2.85;;;6.40;99.90;;;;;;4812834;29;20054;-77
2023/01/31 10:43:46;;;;;;;25.58;3.63;;;6.40;99.90;;;;;;4810328;29;20118;-77
2023/01/31 10:46:14;;;;;;;25.50;3.55;;;6.30;99.90;;;;;;4813305;29;20067;-81
2023/01/31 10:48:42;;;;;;;22.05;3.17;;;6.30;99.90;;;;;;4797181;29;20058;-80
2023/01/31 10:51:44;;;;;;;19.55;3.00;;;6.30;99.90;;;;;;4795934;29;20050;-81
2023/01/31 10:54:39;;;;;;;18.63;3.78;;;6.40;99.90;;;;;;4810858;29;20086;-80
2023/01/31 10:57:05;;;;;;;18.40;3.38;;;6.40;99.90;;;;;;4811199;29;20145;-86
2023/01/31 10:59:36;;;;;;;22.58;3.95;;;6.40;99.90;;;;;;4809639;29;20141;-80
2023/01/31 11:02:03;;;;;;;20.33;3.17;;;6.50;99.90;;;;;;4795635;29;20126;-80
2023/01/31 11:04:41;;;;;;;33.45;4.15;;;6.40;99.90;;;;;;4812505;29;20058;-80
2023/01/31 11:07:08;;;;;;;18.50;2.70;;;6.40;99.90;;;;;;4812895;29;20077;-82
2023/01/31 11:09:38;;;;;;;19.67;3.22;;;6.40;99.90;;;;;;4809341;29;20059;-80
2023/01/31 11:12:06;;;;;;;23.70;3.65;;;6.40;99.90;;;;;;4794252;29;20496;-83
2023/01/31 11:14:31;;;;;;;25.25;3.85;;;6.40;99.90;;;;;;4810503;29;20058;-82
2023/01/31 11:17:05;;;;;;;22.60;3.63;;;6.40;99.90;;;;;;4810204;29;20484;-81
2023/01/31 11:19:31;;;;;;;18.08;3.35;;;8.10;99.90;;;;;;4813462;29;20054;-83
2023/01/31 11:21:57;;;;;;;22.42;2.97;;;8.10;99.90;;;;;;4812379;29;20054;-80
2023/01/31 11:24:27;;;;;;;25.92;3.95;;;6.40;99.90;;;;;;4810195;29;20133;-81
2023/01/31 11:27:19;;;;;;;21.85;4.03;;;7.00;99.90;;;;;;4808704;29;20081;-80
2023/01/31 11:29:49;;;;;;;;;;;6.40;99.90;;;;;;4814881;29;20562;-79
2023/01/31 11:32:37;;;;;;;19.55;3.40;;;6.50;99.90;;;;;;4809689;29;20286;-83
2023/01/31 11:35:23;;;;;;;20.40;2.55;;;6.50;99.90;;;;;;4810032;29;20055;-80
2023/01/31 11:38:03;;;;;;;25.00;3.83;;;6.60;99.90;;;;;;4797199;29;20628;-80
2023/01/31 11:40:33;;;;;;;24.50;3.33;;;6.50;99.90;;;;;;4793970;29;20058;-82
2023/01/31 11:43:22;;;;;;;28.20;4.05;;;7.80;99.90;;;;;;4810417;29;20058;-81
2023/01/31 11:45:59;;;;;;;26.23;3.83;;;8.30;99.90;;;;;;4811349;29;20514;-85
2023/01/31 11:48:41;;;;;;;29.00;3.75;;;8.50;99.90;;;;;;4794166;29;20065;-80
2023/01/31 11:51:08;;;;;;;29.42;4.85;;;6.60;99.90;;;;;;4794992;29;20086;-82
2023/01/31 11:53:42;;;;;;;25.55;4.57;;;7.00;99.90;;;;;;4817643;29;20090;-80
2023/01/31 11:56:25;;;;;;;22.42;4.00;;;6.70;99.90;;;;;;4813006;29;20505;-84
2023/01/31 11:59:01;;;;;;;23.00;2.97;;;6.80;99.90;;;;;;4808408;29;20065;-81
2023/01/31 12:01:27;;;;;;;35.05;5.35;;;7.00;99.90;;;;;;4811912;29;20053;-83
2023/01/31 12:03:57;;;;;;;21.40;3.28;;;8.50;99.90;;;;;;4812957;29;20054;-82
2023/01/31 12:06:28;;;;;;;21.90;3.03;;;8.70;99.90;;;;;;4793172;29;20086;-81
2023/01/31 12:08:55;;;;;;;27.08;2.95;;;7.70;99.90;;;;;;4808204;29;20088;-84
2023/01/31 12:11:27;;;;;;;28.38;3.55;;;7.40;99.90;;;;;;4796299;29;20046;-87
2023/01/31 12:14:10;;;;;;;28.15;3.85;;;7.10;99.90;;;;;;4810952;29;20586;-86
2023/01/31 12:16:36;;;;;;;22.40;3.03;;;8.60;99.90;;;;;;4797248;29;20058;-83
2023/01/31 12:19:11;;;;;;;16.08;3.33;;;8.50;99.90;;;;;;4808751;29;20129;-86
2023/01/31 12:21:42;;;;;;;21.90;3.75;;;7.40;99.90;;;;;;4792933;29;20097;-81
2023/01/31 12:24:17;;;;;;;19.55;2.63;;;7.40;99.90;;;;;;4794721;29;20054;-80
2023/01/31 12:26:45;;;;;;;;;;;7.40;99.90;;;;;;4810993;29;20176;-80
2023/01/31 12:29:24;;;;;;;20.83;3.05;;;7.50;99.90;;;;;;4810343;29;19925;-81
2023/01/31 12:32:22;;;;;;;17.10;2.83;;;7.50;99.90;;;;;;4808087;29;20043;-81
2023/01/31 12:35:09;;;;;;;20.98;4.10;;;7.50;99.90;;;;;;4809167;29;20054;-82
2023/01/31 12:37:52;;;;;;;16.20;1.67;;;6.20;99.90;;;;;;4808021;29;20101;-80
2023/01/31 12:40:39;;;;;;;21.13;3.15;;;7.70;99.90;;;;;;4810178;29;20098;-84
2023/01/31 12:43:39;;;;;;;19.88;3.45;;;7.80;99.90;;;;;;4794862;29;20100;-84
2023/01/31 12:46:23;;;;;;;23.52;3.00;;;7.80;99.90;;;;;;4793509;29;20317;-86
2023/01/31 12:49:19;;;;;;;23.88;2.90;;;7.80;99.90;;;;;;4795123;29;20057;-82
2023/01/31 12:52:08;;;;;;;18.25;2.38;;;7.90;99.90;;;;;;4792578;29;20066;-80
2023/01/31 12:55:00;;;;;;;11.57;1.90;;;7.90;99.90;;;;;;4807257;29;20137;-80
2023/01/31 12:58:10;;;;;;;23.88;3.20;;;7.90;99.90;;;;;;4807858;29;20054;-80
2023/01/31 13:00:51;;;;;;;18.00;2.97;;;7.90;99.90;;;;;;4807925;29;20104;-80
2023/01/31 13:03:47;;;;;;;9.23;2.47;;;7.90;99.90;;;;;;4811332;29;20068;-81
2023/01/31 13:06:30;;;;;;;14.00;2.42;;;7.90;99.90;;;;;;4809688;29;20096;-81
2023/01/31 13:09:19;;;;;;;17.23;3.15;;;7.90;99.90;;;;;;4806985;29;20124;-81
2023/01/31 13:12:12;;;;;;;14.45;2.33;;;7.90;99.90;;;;;;4808543;29;20058;-80
2023/01/31 13:14:47;;;;;;;18.30;3.30;;;7.90;99.90;;;;;;4799114;29;20128;-80